Time;durP1;ratioP1;P1;durP2;ratioP2;P2;SDS_P1;SDS_P2;PMS_P1;PMS_P2;Temp;Humidity;BMP_temperature;BMP_pressure;BME280_temperature;BME280_humidity;BME280_pressure;Samples;Min_cycle;Max_cycle;Signal;HPM_P1;HPM_P2
2023/03/24 00:01:01;;;;;;;2.30;0.80;;;17.00;99.90;;;;;;5048230;28;20485;-80
2023/03/24 00:03:28;;;;;;;1.13;0.98;;;17.10;99.90;;;;;;5049067;28;20048;-80
2023/03/24 00:06:01;;;;;;;0.82;0.65;;;17.10;99.90;;;;;;5044077;28;20045;-81
2023/03/24 00:08:34;;;;;;;2.05;0.80;;;17.20;99.90;;;;;;5048876;28;20128;-81
2023/03/24 00:11:05;;;;;;;1.30;0.80;;;17.20;99.90;;;;;;5053724;28;20122;-80
2023/03/24 00:13:41;;;;;;;0.82;0.80;;;17.20;99.90;;;;;;5057015;28;20112;-81
2023/03/24 00:16:11;;;;;;;0.82;0.70;;;17.20;99.90;;;;;;5047643;28;20076;-81
2023/03/24 00:18:38;;;;;;;1.67;0.77;;;17.30;99.90;;;;;;5058303;28;20503;-80
2023/03/24 00:21:07;;;;;;;1.58;0.90;;;17.30;99.90;;;;;;5059112;28;20053;-80
2023/03/24 00:23:34;;;;;;;1.98;0.80;;;17.30;99.90;;;;;;5053397;28;20084;-81
2023/03/24 00:26:08;;;;;;;2.55;0.80;;;17.30;99.90;;;;;;5073712;28;20104;-80
2023/03/24 00:28:35;;;;;;;1.15;0.80;;;17.40;99.90;;;;;;5066257;28;20025;-80
2023/03/24 00:31:04;;;;;;;1.58;0.90;;;17.40;99.90;;;;;;5062411;28;20071;-80
2023/03/24 00:33:33;;;;;;;1.45;0.63;;;17.40;99.90;;;;;;5065724;28;20064;-80
2023/03/24 00:36:05;;;;;;;1.07;0.77;;;17.50;99.90;;;;;;5071938;28;20076;-80
2023/03/24 00:38:33;;;;;;;1.02;0.85;;;17.50;99.90;;;;;;5041811;28;20048;-81
2023/03/24 00:41:01;;;;;;;1.42;0.80;;;17.50;99.90;;;;;;5044384;28;20115;-81
2023/03/24 00:43:28;;;;;;;2.25;0.77;;;17.50;99.90;;;;;;5050408;28;20140;-80
2023/03/24 00:46:07;;;;;;;0.93;0.60;;;17.50;99.90;;;;;;5055867;28;20071;-80
2023/03/24 00:48:34;;;;;;;1.38;0.75;;;17.50;99.90;;;;;;5048505;28;20068;-81
2023/03/24 00:51:01;;;;;;;0.90;0.60;;;17.50;99.90;;;;;;5051722;28;20053;-81
2023/03/24 00:53:28;;;;;;;0.90;0.70;;;17.50;99.90;;;;;;5049074;28;20048;-81
2023/03/24 00:55:57;;;;;;;1.60;0.45;;;17.50;99.90;;;;;;5049809;28;20139;-80
2023/03/24 00:58:24;;;;;;;2.15;0.75;;;17.50;99.90;;;;;;5053473;28;20071;-80
2023/03/24 01:00:53;;;;;;;3.70;0.70;;;17.60;99.90;;;;;;5057543;28;20055;-80
2023/03/24 01:03:25;;;;;;;1.20;0.93;;;17.60;99.90;;;;;;5049500;28;20060;-81
2023/03/24 01:05:56;;;;;;;1.58;0.70;;;17.60;99.90;;;;;;5048356;28;20057;-81
2023/03/24 01:08:24;;;;;;;1.60;0.98;;;17.70;99.90;;;;;;5059994;28;20045;-80
2023/03/24 01:10:53;;;;;;;1.42;0.80;;;17.70;99.90;;;;;;5061666;28;20076;-80
2023/03/24 01:13:22;;;;;;;2.55;0.80;;;17.70;99.90;;;;;;5062163;28;20036;-81
2023/03/24 01:15:49;;;;;;;1.65;0.85;;;17.70;99.90;;;;;;5054174;28;20081;-80
2023/03/24 01:18:16;;;;;;;0.80;0.75;;;17.70;99.90;;;;;;5060604;28;20049;-81
2023/03/24 01:20:44;;;;;;;0.82;0.77;;;17.80;99.90;;;;;;5048380;28;20052;-81
2023/03/24 01:23:14;;;;;;;2.92;0.88;;;17.80;99.90;;;;;;5045730;28;20045;-81
2023/03/24 01:25:44;;;;;;;1.55;0.90;;;17.80;99.90;;;;;;5045633;28;20117;-80
2023/03/24 01:28:11;;;;;;;0.98;0.82;;;17.80;99.90;;;;;;5041741;28;20041;-80
2023/03/24 01:30:39;;;;;;;0.73;0.68;;;17.80;99.90;;;;;;5050413;28;20135;-81
2023/03/24 01:33:06;;;;;;;0.77;0.70;;;17.80;99.90;;;;;;5052066;28;20049;-80
2023/03/24 01:35:32;;;;;;;3.30;0.70;;;17.80;99.90;;;;;;5049295;28;20124;-80
2023/03/24 01:37:59;;;;;;;1.40;0.70;;;17.80;99.90;;;;;;5054248;28;20054;-80
2023/03/24 01:40:31;;;;;;;1.27;0.80;;;17.80;99.90;;;;;;5044095;28;20089;-80
2023/03/24 01:42:59;;;;;;;1.13;0.70;;;17.80;99.90;;;;;;5066182;28;20051;-80
2023/03/24 01:45:40;;;;;;;3.67;0.90;;;17.80;99.90;;;;;;5050349;28;20049;-80
2023/03/24 01:48:19;;;;;;;1.17;0.73;;;17.80;99.90;;;;;;5067692;28;20045;-80
2023/03/24 01:50:57;;;;;;;0.85;0.75;;;17.80;99.90;;;;;;5042233;28;20061;-80
2023/03/24 01:53:25;;;;;;;2.35;0.85;;;17.80;99.90;;;;;;5046287;28;20536;-80
2023/03/24 01:55:53;;;;;;;1.27;0.70;;;17.90;99.90;;;;;;5052996;28;20057;-80
2023/03/24 01:58:20;;;;;;;1.33;0.80;;;17.90;99.90;;;;;;5051103;28;20410;-79
2023/03/24 02:00:46;;;;;;;0.80;0.80;;;17.90;99.90;;;;;;5053166;28;20048;-79
2023/03/24 02:03:19;;;;;;;2.17;0.90;;;17.90;99.90;;;;;;5047013;28;20512;-80
2023/03/24 02:05:50;;;;;;;1.70;0.70;;;18.00;99.90;;;;;;5053116;28;20045;-79
2023/03/24 02:08:33;;;;;;;2.25;0.80;;;17.90;99.90;;;;;;5050965;28;20056;-80
2023/03/24 02:11:01;;;;;;;1.83;1.13;;;17.90;99.90;;;;;;5046703;28;20059;-80
2023/03/24 02:13:28;;;;;;;2.38;0.90;;;17.90;99.90;;;;;;5046992;28;20132;-80
2023/03/24 02:16:37;;;;;;;0.90;0.80;;;17.90;99.90;;;;;;5043123;28;20455;-80
2023/03/24 02:19:11;;;;;;;1.35;0.80;;;17.90;99.90;;;;;;5051273;28;20060;-80
2023/03/24 02:21:48;;;;;;;2.67;0.98;;;17.90;99.90;;;;;;5053579;28;20047;-80
2023/03/24 02:24:39;;;;;;;1.65;0.88;;;17.90;99.90;;;;;;5042345;28;20124;-80
2023/03/24 02:27:31;;;;;;;2.17;1.02;;;17.80;99.90;;;;;;5061008;28;20045;-80
2023/03/24 02:30:20;;;;;;;1.52;0.80;;;17.90;99.90;;;;;;5045146;28;20076;-80
2023/03/24 02:33:25;;;;;;;1.02;0.80;;;17.80;99.90;;;;;;5053390;28;20052;-81
2023/03/24 02:36:10;;;;;;;0.95;0.80;;;17.80;99.90;;;;;;5074787;28;20112;-80
2023/03/24 02:38:46;;;;;;;1.65;0.90;;;17.80;99.90;;;;;;5045508;28;20040;-80
2023/03/24 02:41:32;;;;;;;0.80;0.75;;;17.70;99.90;;;;;;5052724;28;20080;-80
2023/03/24 02:44:19;;;;;;;0.93;0.82;;;17.70;99.90;;;;;;5056433;28;20045;-79
2023/03/24 02:47:13;;;;;;;1.83;0.80;;;17.70;99.90;;;;;;5044908;28;20045;-80
2023/03/24 02:49:55;;;;;;;2.33;0.80;;;17.60;99.90;;;;;;5040842;28;20109;-80
2023/03/24 02:52:31;;;;;;;1.20;0.77;;;17.60;99.90;;;;;;5050171;28;20140;-80
2023/03/24 02:55:26;;;;;;;1.30;1.00;;;17.60;99.90;;;;;;5050953;28;20055;-80
2023/03/24 02:58:00;;;;;;;1.58;0.80;;;17.60;99.90;;;;;;5041865;28;20060;-80
2023/03/24 03:00:48;;;;;;;1.38;0.70;;;17.50;99.90;;;;;;5050827;28;20117;-80
2023/03/24 03:03:27;;;;;;;1.50;0.85;;;17.50;99.90;;;;;;5047211;28;20080;-80
2023/03/24 03:06:02;;;;;;;1.50;0.90;;;17.50;99.90;;;;;;5052623;28;20041;-80
2023/03/24 03:08:32;;;;;;;1.35;0.80;;;17.50;99.90;;;;;;5051841;28;20041;-80
2023/03/24 03:11:02;;;;;;;3.40;0.93;;;17.40;99.90;;;;;;5051180;28;20073;-80
2023/03/24 03:13:49;;;;;;;0.73;0.63;;;17.40;99.90;;;;;;5045126;28;20048;-80
2023/03/24 03:16:27;;;;;;;1.27;0.70;;;17.40;99.90;;;;;;5047724;28;20071;-80
2023/03/24 03:19:04;;;;;;;1.45;0.60;;;17.40;99.90;;;;;;5047906;28;20056;-80
2023/03/24 03:21:38;;;;;;;0.70;0.70;;;17.40;99.90;;;;;;5057518;28;20044;-80
2023/03/24 03:24:25;;;;;;;1.70;0.90;;;17.40;99.90;;;;;;5046328;28;20042;-80
2023/03/24 03:26:57;;;;;;;0.65;0.60;;;17.40;99.90;;;;;;5043789;28;20057;-80
2023/03/24 03:29:29;;;;;;;0.82;0.63;;;17.40;99.90;;;;;;5066240;28;20045;-80
2023/03/24 03:32:06;;;;;;;1.33;0.60;;;17.40;99.90;;;;;;5053420;28;20457;-80
2023/03/24 03:34:49;;;;;;;2.60;0.65;;;17.40;99.90;;;;;;5051347;28;20064;-80
2023/03/24 03:37:35;;;;;;;0.85;0.80;;;17.40;99.90;;;;;;5043364;28;20422;-80
2023/03/24 03:40:08;;;;;;;0.88;0.80;;;17.40;99.90;;;;;;5064039;28;20085;-80
2023/03/24 03:42:35;;;;;;;2.10;0.70;;;17.40;99.90;;;;;;5051016;28;20128;-80
2023/03/24 03:45:02;;;;;;;4.38;1.25;;;17.40;99.90;;;;;;5067029;28;20068;-80
2023/03/24 03:47:30;;;;;;;1.70;1.20;;;17.40;99.90;;;;;;5057157;28;20046;-80
2023/03/24 03:49:59;;;;;;;2.25;1.40;;;17.30;99.90;;;;;;5048346;28;20497;-80
2023/03/24 03:52:26;;;;;;;2.58;1.30;;;17.10;99.90;;;;;;5052395;28;20073;-80
2023/03/24 03:54:54;;;;;;;2.90;1.40;;;17.10;99.90;;;;;;5053105;28;20061;-80
2023/03/24 03:57:21;;;;;;;5.57;1.50;;;17.00;99.90;;;;;;5050597;28;20042;-80
2023/03/24 03:59:48;;;;;;;5.32;1.63;;;16.80;99.90;;;;;;5043965;28;20490;-79
2023/03/24 04:02:53;;;;;;;2.70;1.67;;;16.80;99.90;;;;;;5052439;28;20053;-80
2023/03/24 04:05:25;;;;;;;5.80;2.00;;;16.80;99.90;;;;;;5045161;28;20053;-80
2023/03/24 04:08:07;;;;;;;6.07;2.00;;;16.60;99.90;;;;;;5052894;28;20102;-79
2023/03/24 04:11:07;;;;;;;3.50;1.90;;;16.50;99.90;;;;;;5052746;28;20053;-80
2023/03/24 04:13:39;;;;;;;;;;;16.40;99.90;;;;;;5056913;28;20042;-79
2023/03/24 04:16:16;;;;;;;3.88;2.40;;;16.30;99.90;;;;;;5053881;28;20024;-80
2023/03/24 04:19:10;;;;;;;2.92;2.25;;;16.20;99.90;;;;;;5073562;28;20052;-80
2023/03/24 04:21:57;;;;;;;4.57;2.25;;;16.10;99.90;;;;;;5047534;28;20600;-80
2023/03/24 04:24:37;;;;;;;4.75;2.78;;;16.00;99.90;;;;;;5050580;28;20740;-80
2023/03/24 04:27:26;;;;;;;5.03;2.92;;;16.00;99.90;;;;;;5065832;28;20113;-80
2023/03/24 04:30:15;;;;;;;2.70;2.15;;;16.00;99.90;;;;;;5052563;28;20064;-79
2023/03/24 04:32:57;;;;;;;3.73;2.70;;;16.00;99.90;;;;;;5048801;28;20097;-78
2023/03/24 04:35:42;;;;;;;5.32;2.70;;;15.90;99.90;;;;;;5053453;28;20491;-79
2023/03/24 04:38:16;;;;;;;3.95;2.80;;;15.90;99.90;;;;;;5057440;28;20047;-80
2023/03/24 04:40:45;;;;;;;3.33;2.53;;;15.80;99.90;;;;;;5052020;28;20124;-80
2023/03/24 04:43:16;;;;;;;4.87;2.60;;;15.80;99.90;;;;;;5054102;28;20102;-79
2023/03/24 04:45:48;;;;;;;4.30;2.97;;;15.80;99.90;;;;;;5043168;28;20288;-79
2023/03/24 04:48:17;;;;;;;5.35;2.78;;;15.80;99.90;;;;;;5067653;28;20099;-79
2023/03/24 04:50:51;;;;;;;7.18;3.35;;;15.80;99.90;;;;;;5051993;28;20121;-80
2023/03/24 04:53:18;;;;;;;4.80;2.90;;;15.80;99.90;;;;;;5053270;28;20045;-79
2023/03/24 04:55:52;;;;;;;3.60;2.60;;;15.70;99.90;;;;;;5047506;28;20046;-79
2023/03/24 04:58:21;;;;;;;4.25;2.90;;;15.70;99.90;;;;;;5045935;28;20052;-79
2023/03/24 05:00:49;;;;;;;4.15;2.80;;;15.70;99.90;;;;;;5053821;28;20077;-79
2023/03/24 05:03:17;;;;;;;4.63;2.83;;;15.70;99.90;;;;;;5057206;28;20056;-79
2023/03/24 05:05:47;;;;;;;9.05;3.80;;;15.60;99.90;;;;;;5049119;28;20101;-79
2023/03/24 05:08:15;;;;;;;8.18;3.40;;;15.60;99.90;;;;;;5043637;28;20056;-79
2023/03/24 05:10:42;;;;;;;4.47;2.85;;;15.70;99.90;;;;;;5042642;28;20125;-79
2023/03/24 05:13:09;;;;;;;3.28;2.40;;;15.70;99.90;;;;;;5049061;28;20064;-79
2023/03/24 05:15:36;;;;;;;5.07;2.78;;;15.60;99.90;;;;;;5052527;28;20037;-79
2023/03/24 05:18:04;;;;;;;3.45;2.92;;;15.60;99.90;;;;;;5069455;28;20405;-79
2023/03/24 05:20:31;;;;;;;5.07;3.13;;;15.60;99.90;;;;;;5059104;28;20563;-79
2023/03/24 05:22:58;;;;;;;3.58;2.80;;;15.60;99.90;;;;;;5055455;28;20513;-80
2023/03/24 05:25:25;;;;;;;7.00;3.10;;;15.60;99.90;;;;;;5047678;28;20049;-79
2023/03/24 05:27:51;;;;;;;4.43;3.08;;;15.60;99.90;;;;;;5055786;28;20045;-79
2023/03/24 05:30:21;;;;;;;4.97;3.25;;;15.60;99.90;;;;;;5053292;28;20045;-80
2023/03/24 05:32:48;;;;;;;3.65;3.30;;;15.50;99.90;;;;;;5051704;28;20045;-79
2023/03/24 05:35:15;;;;;;;5.05;3.85;;;15.50;99.90;;;;;;5043140;28;20053;-79
2023/03/24 05:37:41;;;;;;;4.50;3.15;;;15.50;99.90;;;;;;5045389;28;20045;-78
2023/03/24 05:40:09;;;;;;;5.25;3.13;;;15.50;99.90;;;;;;5050019;28;20045;-79
2023/03/24 05:42:35;;;;;;;4.88;3.20;;;15.40;99.90;;;;;;5046573;28;20049;-79
2023/03/24 05:45:03;;;;;;;6.20;3.30;;;15.30;99.90;;;;;;5048783;28;20077;-79
2023/03/24 05:47:30;;;;;;;6.43;3.28;;;15.30;99.90;;;;;;5045032;28;20045;-79
2023/03/24 05:49:56;;;;;;;4.53;3.25;;;15.20;99.90;;;;;;5050534;28;20539;-79
2023/03/24 05:52:23;;;;;;;4.97;3.65;;;15.20;99.90;;;;;;5050219;28;20524;-80
2023/03/24 05:54:52;;;;;;;8.57;4.15;;;15.20;99.90;;;;;;5053538;28;20053;-79
2023/03/24 05:57:20;;;;;;;6.80;3.63;;;15.10;99.90;;;;;;5041913;28;20053;-79
2023/03/24 05:59:46;;;;;;;6.55;4.32;;;15.20;99.90;;;;;;5055209;28;20048;-80
2023/03/24 06:02:13;;;;;;;4.85;3.85;;;15.10;99.90;;;;;;5049171;28;20052;-79
2023/03/24 06:04:47;;;;;;;6.25;4.20;;;15.10;99.90;;;;;;5047613;28;20046;-79
2023/03/24 06:07:15;;;;;;;5.43;3.90;;;15.10;99.90;;;;;;5050632;28;20056;-80
2023/03/24 06:09:45;;;;;;;10.07;4.40;;;15.10;99.90;;;;;;5046744;28;20045;-79
2023/03/24 06:12:14;;;;;;;7.57;4.03;;;15.10;99.90;;;;;;5047278;28;20049;-80
2023/03/24 06:14:41;;;;;;;8.00;7.05;;;15.10;99.90;;;;;;5065127;28;20076;-80
2023/03/24 06:17:13;;;;;;;7.40;4.40;;;15.10;99.90;;;;;;5050011;28;20048;-80
2023/03/24 06:19:47;;;;;;;4.38;3.60;;;15.10;99.90;;;;;;5041705;28;20101;-80
2023/03/24 06:22:18;;;;;;;4.78;4.13;;;15.10;99.90;;;;;;5042960;28;20045;-80
2023/03/24 06:24:45;;;;;;;4.32;3.38;;;15.10;99.90;;;;;;5051755;28;20124;-80
2023/03/24 06:27:13;;;;;;;6.63;3.78;;;15.10;99.90;;;;;;5067239;28;20041;-80
2023/03/24 06:29:43;;;;;;;5.38;4.03;;;15.10;99.90;;;;;;5043442;28;20041;-79
2023/03/24 06:32:10;;;;;;;6.97;4.10;;;15.00;99.90;;;;;;5040870;28;20053;-80
2023/03/24 06:34:37;;;;;;;4.53;3.83;;;15.00;99.90;;;;;;5050331;28;20049;-80
2023/03/24 06:37:04;;;;;;;7.15;4.70;;;15.00;99.90;;;;;;5065493;28;20053;-79
2023/03/24 06:39:31;;;;;;;5.38;4.65;;;15.00;99.90;;;;;;5049559;28;20132;-80
2023/03/24 06:41:57;;;;;;;8.80;5.07;;;15.00;99.90;;;;;;5056312;28;20049;-79
2023/03/24 06:44:24;;;;;;;8.73;4.47;;;15.00;99.90;;;;;;5046317;28;20053;-80
2023/03/24 06:46:51;;;;;;;4.88;4.22;;;15.00;99.90;;;;;;5053211;28;20473;-79
2023/03/24 06:49:18;;;;;;;6.03;3.88;;;15.00;99.90;;;;;;5054851;28;20076;-80
2023/03/24 06:51:45;;;;;;;4.57;3.53;;;15.00;99.90;;;;;;5053149;28;20059;-79
2023/03/24 06:54:11;;;;;;;4.03;3.05;;;14.90;99.90;;;;;;5059519;28;20539;-80
2023/03/24 06:56:38;;;;;;;4.88;3.30;;;14.90;99.90;;;;;;5046764;28;20063;-80
2023/03/24 06:59:05;;;;;;;4.57;2.90;;;14.90;99.90;;;;;;5048216;28;20425;-80
2023/03/24 07:01:33;;;;;;;4.22;2.33;;;14.80;99.90;;;;;;5049648;28;20052;-79
2023/03/24 07:04:02;;;;;;;3.33;2.72;;;14.80;99.90;;;;;;5051242;28;20045;-79
2023/03/24 07:06:29;;;;;;;4.93;2.67;;;14.80;99.90;;;;;;5049169;28;20056;-80
2023/03/24 07:08:56;;;;;;;3.92;2.92;;;14.80;99.90;;;;;;5043887;28;20528;-80
2023/03/24 07:11:24;;;;;;;5.38;2.33;;;14.80;99.90;;;;;;5048674;28;20064;-79
2023/03/24 07:13:50;;;;;;;4.03;2.42;;;14.80;99.90;;;;;;5050512;28;20418;-80
2023/03/24 07:16:17;;;;;;;4.70;2.72;;;14.80;99.90;;;;;;5056435;28;20072;-80
2023/03/24 07:18:44;;;;;;;3.75;2.55;;;14.70;99.90;;;;;;5058416;28;20080;-80
2023/03/24 07:21:10;;;;;;;3.75;2.28;;;14.70;99.90;;;;;;5048997;28;20055;-79
2023/03/24 07:23:37;;;;;;;4.25;2.33;;;14.70;99.90;;;;;;5051182;28;20049;-80
2023/03/24 07:26:04;;;;;;;3.88;2.50;;;14.70;99.90;;;;;;5053504;28;20489;-80
2023/03/24 07:28:31;;;;;;;2.92;2.30;;;14.70;99.90;;;;;;5058193;28;20049;-80
2023/03/24 07:31:01;;;;;;;4.07;3.15;;;14.70;99.90;;;;;;5048712;28;20049;-80
2023/03/24 07:33:28;;;;;;;3.22;2.63;;;14.70;99.90;;;;;;5051912;28;20098;-79
2023/03/24 07:35:56;;;;;;;4.18;2.60;;;14.70;99.90;;;;;;5054864;28;20131;-80
2023/03/24 07:38:24;;;;;;;3.45;2.10;;;14.70;99.90;;;;;;5072522;28;20049;-79
2023/03/24 07:40:51;;;;;;;3.65;2.42;;;14.60;99.90;;;;;;5049536;28;20113;-79
2023/03/24 07:43:18;;;;;;;3.45;2.75;;;14.60;99.90;;;;;;5049547;28;20044;-78
2023/03/24 07:45:45;;;;;;;5.72;2.60;;;14.60;99.90;;;;;;5052152;28;20045;-79
2023/03/24 07:48:12;;;;;;;4.03;2.60;;;14.70;99.90;;;;;;5054500;28;20044;-79
2023/03/24 07:50:39;;;;;;;7.43;2.70;;;14.70;99.90;;;;;;5049784;28;20057;-79
2023/03/24 07:53:09;;;;;;;3.17;2.20;;;14.70;99.90;;;;;;5054634;28;20149;-79
2023/03/24 07:55:39;;;;;;;3.13;2.55;;;14.70;99.90;;;;;;5046356;28;20052;-79
2023/03/24 07:58:06;;;;;;;3.33;2.47;;;14.70;99.90;;;;;;5050992;28;20052;-78
2023/03/24 08:00:33;;;;;;;4.38;2.42;;;14.70;99.90;;;;;;5053028;28;20068;-79
2023/03/24 08:02:59;;;;;;;2.72;2.25;;;14.70;99.90;;;;;;5052836;28;20041;-79
2023/03/24 08:05:29;;;;;;;3.67;2.28;;;14.70;99.90;;;;;;5053096;28;20047;-79
2023/03/24 08:07:57;;;;;;;4.82;2.22;;;14.70;99.90;;;;;;5044456;28;20489;-78
2023/03/24 08:10:29;;;;;;;3.28;2.25;;;14.70;99.90;;;;;;5049294;28;20049;-79
2023/03/24 08:12:57;;;;;;;3.45;2.28;;;14.70;99.90;;;;;;5059035;28;20056;-79
2023/03/24 08:15:25;;;;;;;2.80;2.20;;;14.70;99.90;;;;;;5053874;28;20099;-79
2023/03/24 08:17:52;;;;;;;2.70;2.13;;;14.70;99.90;;;;;;5045326;28;20067;-79
2023/03/24 08:20:20;;;;;;;3.83;2.55;;;14.70;99.90;;;;;;5062997;28;20045;-79
2023/03/24 08:22:48;;;;;;;3.33;2.10;;;14.70;99.90;;;;;;5051623;28;20052;-79
2023/03/24 08:25:20;;;;;;;2.38;1.83;;;14.70;99.90;;;;;;5014660;28;20105;-79
2023/03/24 08:27:47;;;;;;;5.15;2.33;;;14.70;99.90;;;;;;5018000;28;20106;-79
2023/03/24 08:30:20;;;;;;;3.38;2.22;;;14.60;99.90;;;;;;5006672;28;20064;-78
2023/03/24 08:32:50;;;;;;;3.88;2.03;;;14.70;99.90;;;;;;5014945;28;20045;-80
2023/03/24 08:35:20;;;;;;;2.63;2.30;;;14.60;99.90;;;;;;5009909;28;20512;-78
2023/03/24 08:37:46;;;;;;;2.95;1.77;;;14.60;99.90;;;;;;5011839;28;20075;-78
2023/03/24 08:40:18;;;;;;;4.50;2.03;;;14.60;99.90;;;;;;5016819;28;20061;-79
2023/03/24 08:42:53;;;;;;;4.13;2.15;;;14.60;99.90;;;;;;5023465;28;20046;-79
2023/03/24 08:45:23;;;;;;;4.57;2.15;;;14.70;99.90;;;;;;5005701;28;20042;-78
2023/03/24 08:47:51;;;;;;;4.30;1.87;;;14.70;99.90;;;;;;5003135;28;20061;-78
2023/03/24 08:50:21;;;;;;;2.40;1.90;;;14.80;99.90;;;;;;5006793;28;20054;-78
2023/03/24 08:52:47;;;;;;;3.35;1.70;;;14.80;99.90;;;;;;5001701;28;20053;-78
2023/03/24 08:55:18;;;;;;;4.95;1.85;;;14.80;99.90;;;;;;5009671;28;20085;-79
2023/03/24 08:57:46;;;;;;;3.65;2.10;;;14.90;99.90;;;;;;5004732;28;20108;-78
2023/03/24 09:00:15;;;;;;;4.28;1.55;;;14.90;99.90;;;;;;5000087;28;20153;-78
2023/03/24 09:02:44;;;;;;;2.15;1.60;;;14.90;99.90;;;;;;5009759;28;20069;-78
2023/03/24 09:05:12;;;;;;;4.65;1.60;;;15.00;99.90;;;;;;5002995;28;20054;-79
2023/03/24 09:07:38;;;;;;;5.22;1.52;;;15.00;99.90;;;;;;5012080;28;20462;-79
2023/03/24 09:10:07;;;;;;;1.48;1.08;;;15.00;99.90;;;;;;5007098;28;20081;-79
2023/03/24 09:12:34;;;;;;;1.90;1.30;;;15.00;99.90;;;;;;5005786;28;20060;-78
2023/03/24 09:15:02;;;;;;;2.15;1.33;;;15.00;99.90;;;;;;5019337;28;20084;-79
2023/03/24 09:17:29;;;;;;;3.47;1.40;;;15.10;99.90;;;;;;5011381;28;20492;-78
2023/03/24 09:19:56;;;;;;;1.10;0.98;;;15.10;99.90;;;;;;5011685;28;20077;-79
2023/03/24 09:22:23;;;;;;;3.13;1.45;;;15.10;99.90;;;;;;5011776;28;20052;-79
2023/03/24 09:24:50;;;;;;;1.42;1.00;;;15.20;99.90;;;;;;5015290;28;20046;-79
2023/03/24 09:27:17;;;;;;;1.92;0.90;;;15.20;99.90;;;;;;5012096;28;20074;-79
2023/03/24 09:29:44;;;;;;;1.15;0.95;;;15.20;99.90;;;;;;5008654;28;20050;-80
2023/03/24 09:32:10;;;;;;;2.78;0.93;;;15.30;99.90;;;;;;5009881;28;20050;-79
2023/03/24 09:34:38;;;;;;;2.47;1.45;;;15.30;99.90;;;;;;5016724;28;20113;-79
2023/03/24 09:37:05;;;;;;;1.23;1.10;;;15.40;99.90;;;;;;5013069;28;20056;-79
2023/03/24 09:39:34;;;;;;;0.77;0.77;;;15.40;99.90;;;;;;5011833;28;20051;-79
2023/03/24 09:42:04;;;;;;;2.83;1.30;;;15.40;99.90;;;;;;5006276;28;20133;-79
2023/03/24 09:44:46;;;;;;;3.30;1.70;;;15.40;99.90;;;;;;5010808;28;20069;-79
2023/03/24 09:47:26;;;;;;;2.25;1.20;;;15.40;99.90;;;;;;5011440;28;20058;-79
2023/03/24 09:49:57;;;;;;;2.15;1.10;;;15.40;99.90;;;;;;5005042;28;20524;-80
2023/03/24 09:52:32;;;;;;;2.10;1.27;;;15.40;99.90;;;;;;5005329;28;20141;-79
2023/03/24 09:55:01;;;;;;;3.58;1.55;;;15.40;99.90;;;;;;5004710;28;20137;-79
2023/03/24 09:57:44;;;;;;;2.05;1.50;;;15.30;99.90;;;;;;5007278;28;20054;-78
2023/03/24 10:00:22;;;;;;;1.42;1.33;;;15.30;99.90;;;;;;5006342;28;20045;-78
2023/03/24 10:02:50;;;;;;;4.95;1.17;;;15.30;99.90;;;;;;5004429;28;20085;-79
2023/03/24 10:05:38;;;;;;;3.08;1.17;;;15.20;99.90;;;;;;5009327;28;20537;-79
2023/03/24 10:08:16;;;;;;;1.90;1.00;;;15.10;99.90;;;;;;5007934;28;20084;-78
2023/03/24 10:11:28;;;;;;;2.95;1.63;;;15.10;99.90;;;;;;5004581;28;20046;-78
2023/03/24 10:13:58;;;;;;;1.58;0.90;;;15.00;99.90;;;;;;5002920;28;20054;-78
2023/03/24 10:16:58;;;;;;;1.40;0.90;;;14.80;99.90;;;;;;5003946;28;20046;-78
2023/03/24 10:19:37;;;;;;;1.42;0.93;;;14.70;99.90;;;;;;5004335;28;20057;-78
2023/03/24 10:22:24;;;;;;;1.15;0.60;;;14.60;99.90;;;;;;5008536;28;20064;-78
2023/03/24 10:25:04;;;;;;;2.28;0.77;;;14.40;99.90;;;;;;5009761;28;20050;-79
2023/03/24 10:27:54;;;;;;;1.05;0.75;;;14.40;99.90;;;;;;5000750;28;20074;-78
2023/03/24 10:30:28;;;;;;;3.17;0.90;;;14.30;99.90;;;;;;5008073;28;20552;-78
2023/03/24 10:32:55;;;;;;;1.58;0.93;;;14.20;99.90;;;;;;5008166;28;20050;-78
2023/03/24 10:36:03;;;;;;;2.95;0.65;;;14.20;99.90;;;;;;5003746;28;20054;-78
2023/03/24 10:38:33;;;;;;;2.83;0.80;;;14.10;99.90;;;;;;5000992;28;20046;-78
2023/03/24 10:41:00;;;;;;;1.58;0.63;;;14.10;99.90;;;;;;5001701;28;20050;-78
2023/03/24 10:43:28;;;;;;;1.20;0.60;;;14.10;99.90;;;;;;5006863;28;20038;-78
2023/03/24 10:45:57;;;;;;;0.85;0.50;;;14.10;99.90;;;;;;5006197;28;20229;-78
2023/03/24 10:48:41;;;;;;;0.98;0.60;;;14.10;99.90;;;;;;5005577;28;20133;-79
2023/03/24 10:51:33;;;;;;;1.85;0.40;;;14.10;99.90;;;;;;4999271;28;20129;-78
2023/03/24 10:54:14;;;;;;;1.00;0.52;;;14.10;99.90;;;;;;5009609;28;20049;-79
2023/03/24 10:56:44;;;;;;;0.80;0.60;;;14.10;99.90;;;;;;5016711;28;20073;-79
2023/03/24 10:59:47;;;;;;;;;;;14.10;99.90;;;;;;5009963;28;20050;-80
2023/03/24 11:02:25;;;;;;;0.75;0.50;;;14.00;99.90;;;;;;4966496;28;19934;-78
2023/03/24 11:05:01;;;;;;;1.85;0.50;;;13.90;99.90;;;;;;5003720;28;20098;-78
2023/03/24 11:07:45;;;;;;;1.48;0.70;;;13.90;99.90;;;;;;5008123;28;20046;-78
2023/03/24 11:10:23;;;;;;;4.15;0.40;;;13.90;99.90;;;;;;5013081;28;20046;-77
2023/03/24 11:12:52;;;;;;;0.60;0.60;;;13.90;99.90;;;;;;5005196;28;20124;-78
2023/03/24 11:15:22;;;;;;;2.67;0.70;;;13.90;99.90;;;;;;5015728;28;20134;-79
2023/03/24 11:17:58;;;;;;;1.02;0.40;;;14.00;99.90;;;;;;5015553;28;20304;-79
2023/03/24 11:20:30;;;;;;;1.75;0.40;;;14.00;99.90;;;;;;5016496;28;20048;-80
2023/03/24 11:23:00;;;;;;;0.80;0.50;;;14.10;99.90;;;;;;5008768;28;20072;-80
2023/03/24 11:25:30;;;;;;;2.40;1.02;;;14.20;99.90;;;;;;5011283;28;20042;-79
2023/03/24 11:28:04;;;;;;;1.92;0.60;;;14.20;99.90;;;;;;5003647;28;20118;-80
2023/03/24 11:30:47;;;;;;;0.43;0.43;;;14.20;99.90;;;;;;5007627;28;20053;-79
2023/03/24 11:33:32;;;;;;;0.98;0.40;;;14.30;99.90;;;;;;5006717;28;20050;-81
2023/03/24 11:36:25;;;;;;;0.70;0.47;;;14.30;99.90;;;;;;5006699;28;20104;-80
2023/03/24 11:39:00;;;;;;;1.00;0.70;;;14.30;99.90;;;;;;5003656;28;20140;-80
2023/03/24 11:41:27;;;;;;;1.55;0.50;;;14.40;99.90;;;;;;5026390;28;20078;-79
2023/03/24 11:44:15;;;;;;;1.10;0.60;;;14.50;99.90;;;;;;5025896;28;20045;-80
2023/03/24 11:46:45;;;;;;;0.47;0.40;;;14.60;99.90;;;;;;5005209;28;20064;-80
2023/03/24 11:49:17;;;;;;;0.85;0.40;;;14.60;99.90;;;;;;5016700;28;20046;-80
2023/03/24 11:51:46;;;;;;;0.30;0.30;;;14.60;99.90;;;;;;5021834;28;20048;-80
2023/03/24 11:54:17;;;;;;;0.57;0.57;;;14.70;99.90;;;;;;5007761;28;20134;-80
2023/03/24 11:56:49;;;;;;;0.32;0.30;;;14.70;99.90;;;;;;5004228;28;20118;-80
2023/03/24 11:59:51;;;;;;;1.42;0.40;;;14.80;99.90;;;;;;5012778;28;20073;-80
2023/03/24 12:02:40;;;;;;;0.50;0.47;;;14.80;99.90;;;;;;5003920;28;20105;-80
2023/03/24 12:05:24;;;;;;;1.85;0.60;;;14.80;99.90;;;;;;5012178;28;20132;-79
2023/03/24 12:08:13;;;;;;;1.30;0.63;;;14.80;99.90;;;;;;5012982;28;20050;-79
2023/03/24 12:11:26;;;;;;;0.60;0.50;;;14.90;99.90;;;;;;5006241;28;20121;-79
2023/03/24 12:13:55;;;;;;;0.40;0.40;;;14.80;99.90;;;;;;5004315;28;20478;-79
2023/03/24 12:16:31;;;;;;;0.75;0.38;;;14.80;99.90;;;;;;5008607;28;20046;-79
2023/03/24 12:19:17;;;;;;;0.63;0.40;;;14.80;99.90;;;;;;5012848;28;20053;-79
2023/03/24 12:21:55;;;;;;;1.35;0.50;;;14.80;99.90;;;;;;5015102;28;20050;-79
2023/03/24 12:24:52;;;;;;;0.88;0.47;;;14.80;99.90;;;;;;5011864;28;20065;-79
2023/03/24 12:27:26;;;;;;;0.70;0.40;;;14.80;99.90;;;;;;5011737;28;20043;-79
2023/03/24 12:30:06;;;;;;;0.45;0.45;;;14.80;99.90;;;;;;5012963;28;20046;-79
2023/03/24 12:33:03;;;;;;;0.55;0.30;;;14.80;99.90;;;;;;5009329;28;20537;-79
2023/03/24 12:35:41;;;;;;;1.70;0.40;;;14.80;99.90;;;;;;5002287;28;20053;-79
2023/03/24 12:38:33;;;;;;;0.40;0.30;;;14.70;99.90;;;;;;5007817;28;20042;-79
2023/03/24 12:41:37;;;;;;;0.60;0.52;;;14.50;99.90;;;;;;5022182;28;20491;-79
2023/03/24 12:44:39;;;;;;;1.42;0.40;;;14.40;99.90;;;;;;5009230;28;20427;-78
2023/03/24 12:47:08;;;;;;;2.17;0.40;;;14.30;99.90;;;;;;5004889;28;20121;-79
2023/03/24 12:49:50;;;;;;;1.40;0.60;;;14.30;99.90;;;;;;5004521;28;20475;-79
2023/03/24 12:52:48;;;;;;;0.50;0.30;;;14.20;99.90;;;;;;5007451;28;20288;-79
2023/03/24 12:55:40;;;;;;;0.60;0.40;;;14.20;99.90;;;;;;5011035;28;20046;-81
2023/03/24 12:58:23;;;;;;;0.60;0.50;;;14.10;99.90;;;;;;5003705;28;20053;-79
2023/03/24 13:01:13;;;;;;;0.45;0.30;;;14.10;99.90;;;;;;5014964;28;20061;-79
2023/03/24 13:03:45;;;;;;;0.73;0.50;;;14.10;99.90;;;;;;5016026;28;20050;-83
2023/03/24 13:06:28;;;;;;;0.60;0.40;;;14.00;99.90;;;;;;5008946;28;20039;-79
2023/03/24 13:09:04;;;;;;;2.35;0.50;;;14.00;99.90;;;;;;5009328;28;20053;-79
2023/03/24 13:11:40;;;;;;;1.73;0.52;;;14.00;99.90;;;;;;5012136;28;20042;-80
2023/03/24 13:14:14;;;;;;;2.92;0.70;;;14.00;99.90;;;;;;5013276;28;20045;-80
2023/03/24 13:16:45;;;;;;;0.50;0.50;;;14.10;99.90;;;;;;5026336;28;20076;-80
2023/03/24 13:19:19;;;;;;;0.95;0.40;;;14.10;99.90;;;;;;5009322;28;20092;-80
2023/03/24 13:21:48;;;;;;;1.98;0.73;;;14.00;99.90;;;;;;5005379;28;20050;-80